Time;durP1;ratioP1;P1;durP2;ratioP2;P2;SDS_P1;SDS_P2;PMS_P1;PMS_P2;Temp;Humidity;BMP_temperature;BMP_pressure;BME280_temperature;BME280_humidity;BME280_pressure;Samples;Min_cycle;Max_cycle;Signal;HPM_P1;HPM_P2
2022/03/31 00:00:07;;;;;;;3.40;0.90;;;4.50;99.40;;;;;;5135988;27;20051;-73
2022/03/31 00:02:33;;;;;;;2.30;0.90;;;4.50;99.30;;;;;;5136447;27;20068;-73
2022/03/31 00:04:59;;;;;;;4.72;0.90;;;4.50;99.30;;;;;;5135837;27;20063;-74
2022/03/31 00:07:25;;;;;;;5.13;0.90;;;4.50;99.30;;;;;;5117996;27;20039;-73
2022/03/31 00:09:50;;;;;;;4.88;1.10;;;4.50;99.30;;;;;;5135717;27;20046;-73
2022/03/31 00:12:16;;;;;;;2.35;0.70;;;4.50;99.30;;;;;;5118160;27;20050;-73
2022/03/31 00:14:41;;;;;;;3.95;0.93;;;4.60;99.40;;;;;;5136124;27;20050;-74
2022/03/31 00:17:07;;;;;;;7.82;1.00;;;4.60;99.60;;;;;;5135491;27;20047;-73
2022/03/31 00:19:33;;;;;;;3.85;0.95;;;4.60;99.60;;;;;;5117855;27;20043;-74
2022/03/31 00:21:58;;;;;;;5.70;1.08;;;4.60;99.50;;;;;;5135253;27;20130;-74
2022/03/31 00:24:24;;;;;;;5.13;0.98;;;4.60;99.60;;;;;;5117477;27;20391;-73
2022/03/31 00:26:49;;;;;;;5.20;1.00;;;4.60;99.40;;;;;;5117327;27;20043;-73
2022/03/31 00:29:15;;;;;;;4.22;0.82;;;4.60;99.20;;;;;;5117759;27;20045;-73
2022/03/31 00:31:41;;;;;;;4.05;0.80;;;4.50;99.30;;;;;;5135655;27;20091;-73
2022/03/31 00:34:07;;;;;;;6.03;1.35;;;4.50;99.30;;;;;;5135286;27;20088;-73
2022/03/31 00:36:32;;;;;;;5.47;0.82;;;4.50;99.20;;;;;;5117619;27;20047;-74
2022/03/31 00:41:42;;;;;;;4.15;0.80;;;4.60;99.20;;;;;;5135789;27;20101;-73
2022/03/31 00:44:08;;;;;;;4.57;0.90;;;4.40;99.20;;;;;;5135076;27;20051;-73
2022/03/31 00:46:34;;;;;;;4.47;0.90;;;4.50;99.40;;;;;;5135365;27;20047;-74
2022/03/31 00:49:01;;;;;;;3.65;0.77;;;4.40;99.60;;;;;;5135156;27;20380;-73
2022/03/31 00:51:28;;;;;;;3.50;1.00;;;4.40;99.60;;;;;;5117519;27;20050;-73
2022/03/31 00:53:53;;;;;;;3.88;0.85;;;4.40;99.50;;;;;;5099939;27;20047;-74
2022/03/31 00:56:19;;;;;;;2.95;1.00;;;4.40;99.50;;;;;;5100019;27;20064;-73
2022/03/31 00:58:45;;;;;;;5.97;0.90;;;4.40;99.80;;;;;;5116903;27;20047;-73
2022/03/31 01:01:13;;;;;;;4.97;0.90;;;4.40;99.80;;;;;;5134689;27;20055;-73
2022/03/31 01:03:39;;;;;;;7.80;1.20;;;4.40;99.90;;;;;;5117045;27;20055;-73
2022/03/31 01:06:05;;;;;;;5.57;1.02;;;4.30;99.80;;;;;;5116578;27;20367;-73
2022/03/31 01:08:31;;;;;;;2.03;0.73;;;4.30;99.90;;;;;;5135223;27;20125;-73
2022/03/31 01:10:57;;;;;;;3.75;1.05;;;4.30;99.90;;;;;;5134318;27;20493;-73
2022/03/31 01:13:22;;;;;;;4.32;0.77;;;4.30;99.90;;;;;;5134436;27;20093;-73
2022/03/31 01:15:48;;;;;;;4.80;1.00;;;4.30;99.90;;;;;;5134877;27;20043;-73
2022/03/31 01:18:14;;;;;;;4.82;0.95;;;4.20;99.90;;;;;;5134380;27;20154;-73
2022/03/31 01:20:39;;;;;;;4.15;1.27;;;4.20;99.90;;;;;;5134790;27;20047;-73
2022/03/31 01:23:12;;;;;;;4.00;0.95;;;4.20;99.90;;;;;;5115768;27;20088;-73
2022/03/31 01:25:38;;;;;;;5.78;1.23;;;4.20;99.90;;;;;;5116455;27;20065;-74
2022/03/31 01:28:04;;;;;;;5.20;0.88;;;4.30;99.90;;;;;;5134259;27;20031;-73
2022/03/31 01:30:29;;;;;;;4.70;1.05;;;4.20;99.90;;;;;;5134720;27;20047;-73
2022/03/31 01:32:55;;;;;;;5.70;1.10;;;4.30;99.90;;;;;;5134232;27;20115;-73
2022/03/31 01:35:21;;;;;;;5.85;0.80;;;4.30;99.90;;;;;;5134600;27;20055;-73
2022/03/31 01:37:47;;;;;;;6.53;1.02;;;4.30;99.90;;;;;;5134288;27;20382;-73
2022/03/31 01:40:13;;;;;;;4.68;1.77;;;4.30;99.90;;;;;;5134068;27;20047;-73
2022/03/31 01:42:39;;;;;;;3.72;0.88;;;4.30;99.90;;;;;;5116084;27;20449;-73
2022/03/31 01:45:07;;;;;;;3.85;0.82;;;4.30;99.90;;;;;;5098645;27;20126;-73
2022/03/31 01:47:32;;;;;;;2.60;0.63;;;4.30;99.90;;;;;;5099379;27;20039;-73
2022/03/31 01:49:58;;;;;;;3.25;0.88;;;4.30;99.90;;;;;;5133592;27;20543;-73
2022/03/31 01:52:24;;;;;;;1.83;0.70;;;4.30;99.90;;;;;;5115638;27;20083;-73
2022/03/31 01:54:49;;;;;;;3.42;0.85;;;4.30;99.90;;;;;;5134193;27;20039;-73
2022/03/31 01:57:15;;;;;;;2.60;0.80;;;4.30;99.90;;;;;;5115378;27;20047;-73
2022/03/31 01:59:42;;;;;;;3.22;0.95;;;4.40;99.90;;;;;;5115893;27;20088;-73
2022/03/31 02:02:09;;;;;;;2.75;0.70;;;4.30;99.90;;;;;;5133516;27;20051;-73
2022/03/31 02:04:35;;;;;;;3.72;0.80;;;4.30;99.90;;;;;;5115648;27;20121;-73
2022/03/31 02:07:01;;;;;;;2.72;0.80;;;4.30;99.90;;;;;;5133365;27;20485;-74
2022/03/31 02:09:26;;;;;;;3.80;1.00;;;4.30;99.90;;;;;;5134083;27;20046;-73
2022/03/31 02:11:52;;;;;;;3.20;0.60;;;4.30;99.90;;;;;;5115568;27;20046;-73
2022/03/31 02:14:19;;;;;;;3.53;0.70;;;4.30;99.90;;;;;;5114876;27;20535;-73
2022/03/31 02:16:45;;;;;;;2.30;0.70;;;4.30;99.90;;;;;;5133529;27;20487;-73
2022/03/31 02:19:12;;;;;;;6.47;0.70;;;4.30;99.90;;;;;;5114895;27;20051;-73
2022/03/31 02:21:37;;;;;;;4.20;0.82;;;4.40;99.90;;;;;;5098597;27;20064;-73
2022/03/31 02:24:03;;;;;;;4.82;0.80;;;4.40;99.90;;;;;;5133151;27;20039;-73
2022/03/31 02:26:29;;;;;;;3.60;1.00;;;4.30;99.90;;;;;;5115578;27;20043;-73
2022/03/31 02:28:54;;;;;;;5.35;1.00;;;4.30;99.90;;;;;;5133670;27;20035;-73
2022/03/31 02:31:20;;;;;;;2.00;0.90;;;4.30;99.90;;;;;;5133247;27;20070;-73
2022/03/31 02:33:46;;;;;;;1.65;1.20;;;4.40;99.90;;;;;;5133513;27;20042;-73
2022/03/31 02:36:11;;;;;;;4.80;1.50;;;4.30;99.90;;;;;;5132945;27;20039;-73
2022/03/31 02:38:37;;;;;;;4.95;1.50;;;4.30;99.90;;;;;;5098205;28;20043;-73
2022/03/31 02:41:04;;;;;;;6.80;1.45;;;4.30;99.90;;;;;;5133488;27;20047;-73
2022/03/31 02:43:31;;;;;;;3.65;1.48;;;4.30;99.90;;;;;;5133351;27;20127;-72
2022/03/31 02:45:58;;;;;;;3.35;1.55;;;4.30;99.90;;;;;;5115269;28;20051;-73
2022/03/31 02:48:23;;;;;;;5.03;1.85;;;4.30;99.90;;;;;;5132957;28;20078;-73
2022/03/31 02:50:49;;;;;;;5.88;2.15;;;4.30;99.90;;;;;;5133489;28;20443;-73
2022/03/31 02:56:00;;;;;;;3.78;2.33;;;4.30;99.90;;;;;;5133496;28;20112;-74
2022/03/31 02:58:26;;;;;;;5.07;2.92;;;4.30;99.90;;;;;;5132800;28;20217;-73
2022/03/31 03:00:51;;;;;;;3.22;2.80;;;4.20;99.90;;;;;;5097952;28;20100;-73
2022/03/31 03:03:17;;;;;;;6.22;3.35;;;4.20;99.90;;;;;;5132897;28;20097;-73
2022/03/31 03:05:45;;;;;;;3.47;3.15;;;4.20;99.90;;;;;;5115206;28;20091;-73
2022/03/31 03:08:11;;;;;;;5.90;3.72;;;4.20;99.90;;;;;;5132766;28;20058;-73
2022/03/31 03:10:37;;;;;;;4.35;3.80;;;4.10;99.90;;;;;;5133176;28;20392;-73
2022/03/31 03:13:03;;;;;;;4.78;4.05;;;4.10;99.90;;;;;;5132688;28;20476;-73
2022/03/31 03:15:29;;;;;;;7.13;4.80;;;4.10;99.90;;;;;;5132706;28;20055;-73
2022/03/31 03:17:54;;;;;;;6.70;4.68;;;4.00;99.90;;;;;;5132853;28;20047;-73
2022/03/31 03:20:20;;;;;;;6.38;4.88;;;4.00;99.90;;;;;;5114372;28;20112;-73
2022/03/31 03:22:50;;;;;;;8.65;5.53;;;4.10;99.90;;;;;;5132954;28;20054;-73
2022/03/31 03:25:17;;;;;;;7.00;5.30;;;4.00;99.90;;;;;;5097593;28;20062;-73
2022/03/31 03:27:43;;;;;;;6.80;5.32;;;4.00;99.90;;;;;;5132898;28;20387;-73
2022/03/31 03:30:10;;;;;;;8.38;5.20;;;4.10;99.90;;;;;;5114580;28;20051;-73
2022/03/31 03:32:36;;;;;;;6.90;5.50;;;4.00;99.90;;;;;;5133247;28;20063;-73
2022/03/31 03:35:06;;;;;;;5.25;4.75;;;4.00;99.90;;;;;;5134157;27;20051;-78
2022/03/31 03:37:32;;;;;;;6.53;5.30;;;4.00;99.90;;;;;;5101291;27;20053;-74
2022/03/31 03:39:58;;;;;;;9.77;5.57;;;4.00;99.90;;;;;;5136885;27;20047;-73
2022/03/31 03:42:25;;;;;;;7.25;5.75;;;3.90;99.90;;;;;;5136341;27;20125;-77
2022/03/31 03:44:50;;;;;;;7.22;5.75;;;3.90;99.90;;;;;;5118577;27;20380;-75
2022/03/31 03:47:16;;;;;;;8.48;6.35;;;3.90;99.90;;;;;;5136420;27;20096;-74
2022/03/31 03:49:42;;;;;;;6.70;5.85;;;3.90;99.90;;;;;;5118652;27;20051;-73
2022/03/31 03:52:07;;;;;;;6.78;6.10;;;3.80;99.90;;;;;;5136617;27;20125;-74
2022/03/31 03:54:33;;;;;;;7.20;6.50;;;3.70;99.90;;;;;;5118110;27;20065;-75
2022/03/31 03:56:59;;;;;;;7.50;6.75;;;3.70;99.90;;;;;;5136767;27;20394;-76
2022/03/31 03:59:24;;;;;;;7.10;6.40;;;3.80;99.90;;;;;;5117681;27;20047;-75
2022/03/31 04:01:50;;;;;;;6.60;5.80;;;3.80;99.90;;;;;;5136215;27;20406;-75
2022/03/31 04:04:16;;;;;;;6.40;5.80;;;3.70;99.90;;;;;;5117872;27;20368;-75
2022/03/31 04:06:42;;;;;;;7.28;5.90;;;3.70;99.90;;;;;;5118395;27;20058;-75
2022/03/31 04:09:08;;;;;;;6.80;6.20;;;3.70;99.90;;;;;;5136204;27;20511;-75
2022/03/31 04:11:34;;;;;;;7.70;6.18;;;3.70;99.90;;;;;;5135988;27;20051;-75
2022/03/31 04:13:59;;;;;;;6.78;6.07;;;3.70;99.90;;;;;;5117973;27;20054;-75
2022/03/31 04:16:25;;;;;;;7.75;6.00;;;3.70;99.90;;;;;;5135892;27;20054;-74
2022/03/31 04:18:51;;;;;;;7.15;6.45;;;3.70;99.90;;;;;;5136217;27;20069;-73
2022/03/31 04:21:16;;;;;;;7.55;6.72;;;3.70;99.90;;;;;;5118180;27;20051;-74
2022/03/31 04:23:42;;;;;;;7.70;6.80;;;3.70;99.90;;;;;;5136272;27;20039;-75
2022/03/31 04:26:08;;;;;;;7.85;7.05;;;3.70;99.90;;;;;;5136144;27;20049;-75
2022/03/31 04:28:34;;;;;;;7.60;6.90;;;3.70;99.90;;;;;;5117121;27;20483;-74
2022/03/31 04:31:00;;;;;;;6.90;6.20;;;3.70;99.90;;;;;;5118039;27;20043;-74
2022/03/31 04:33:26;;;;;;;7.22;6.28;;;3.70;99.90;;;;;;5135634;27;20046;-73
2022/03/31 04:35:52;;;;;;;6.13;5.60;;;3.70;99.90;;;;;;5135848;27;20047;-73
2022/03/31 04:38:17;;;;;;;5.82;5.22;;;3.70;99.90;;;;;;5100585;27;20050;-73
2022/03/31 04:40:43;;;;;;;7.07;5.32;;;3.70;99.90;;;;;;5134922;27;20532;-74
2022/03/31 04:43:09;;;;;;;5.38;4.88;;;3.70;99.90;;;;;;5135709;27;20054;-74
2022/03/31 04:45:34;;;;;;;4.20;3.90;;;3.70;99.90;;;;;;5116718;27;20053;-75
2022/03/31 04:48:00;;;;;;;4.25;3.92;;;3.60;99.90;;;;;;5134599;27;20045;-73
2022/03/31 04:50:26;;;;;;;4.30;3.97;;;3.60;99.90;;;;;;5135284;27;20134;-73
2022/03/31 04:52:51;;;;;;;3.83;3.53;;;3.70;99.90;;;;;;5135333;27;20126;-73
2022/03/31 04:55:17;;;;;;;4.13;3.72;;;3.60;99.90;;;;;;5135423;27;20047;-73
2022/03/31 04:57:42;;;;;;;4.40;4.10;;;3.60;99.90;;;;;;5134739;27;20433;-73
2022/03/31 05:00:08;;;;;;;3.92;3.60;;;3.60;99.90;;;;;;5135209;27;20047;-73
2022/03/31 05:02:34;;;;;;;3.88;3.58;;;3.60;99.90;;;;;;5112573;28;20055;-73
2022/03/31 05:05:00;;;;;;;4.10;3.60;;;3.60;99.90;;;;;;5114562;28;20062;-73
2022/03/31 05:07:25;;;;;;;4.18;3.88;;;3.60;99.90;;;;;;5096144;28;20047;-73
2022/03/31 05:09:51;;;;;;;4.22;3.83;;;3.60;99.90;;;;;;5114521;28;20044;-73
2022/03/31 05:12:17;;;;;;;4.35;4.00;;;3.60;99.90;;;;;;5114497;28;20392;-74
2022/03/31 05:14:43;;;;;;;3.97;3.67;;;3.60;99.90;;;;;;5095811;28;20043;-73
2022/03/31 05:17:10;;;;;;;5.88;3.83;;;3.60;99.90;;;;;;5113131;28;20055;-74
2022/03/31 05:19:35;;;;;;;4.30;4.00;;;3.70;99.90;;;;;;5113948;28;20085;-74
2022/03/31 05:22:01;;;;;;;3.92;3.63;;;3.60;99.90;;;;;;5096348;28;20423;-77
2022/03/31 05:24:27;;;;;;;5.40;3.95;;;3.50;99.90;;;;;;5113962;28;20043;-75
2022/03/31 05:26:53;;;;;;;3.78;3.47;;;3.50;99.90;;;;;;5114316;28;20126;-75
2022/03/31 05:29:19;;;;;;;3.60;3.30;;;3.50;99.90;;;;;;5114215;28;20075;-74
2022/03/31 05:31:45;;;;;;;3.85;3.30;;;3.50;99.90;;;;;;5113762;28;20066;-76
2022/03/31 05:34:11;;;;;;;3.88;3.58;;;3.50;99.90;;;;;;5113024;28;20476;-76
2022/03/31 05:36:37;;;;;;;3.70;3.40;;;3.40;99.90;;;;;;5113730;28;20520;-75
2022/03/31 05:39:03;;;;;;;3.55;3.10;;;3.40;99.90;;;;;;5113968;28;20050;-74
2022/03/31 05:41:28;;;;;;;3.72;3.42;;;3.40;99.90;;;;;;5113420;28;20047;-74
2022/03/31 05:43:54;;;;;;;3.40;3.10;;;3.40;99.90;;;;;;5112580;28;20047;-73
2022/03/31 05:46:21;;;;;;;3.35;3.13;;;3.40;99.90;;;;;;5113775;28;20040;-73
2022/03/31 05:48:47;;;;;;;3.30;3.00;;;3.40;99.90;;;;;;5095269;28;20387;-73
2022/03/31 05:51:13;;;;;;;3.70;3.10;;;3.40;99.90;;;;;;5113523;28;20051;-73
2022/03/31 05:53:38;;;;;;;3.22;2.92;;;3.50;99.90;;;;;;5113133;28;20039;-74
2022/03/31 05:56:04;;;;;;;3.47;3.20;;;3.40;99.90;;;;;;5112616;28;20077;-73
2022/03/31 05:58:30;;;;;;;3.17;2.97;;;3.40;99.90;;;;;;5094894;28;20059;-73
2022/03/31 06:00:55;;;;;;;3.40;3.17;;;3.40;99.90;;;;;;5112333;28;20135;-73
2022/03/31 06:03:23;;;;;;;3.35;3.05;;;3.40;99.90;;;;;;5113377;28;20050;-73
2022/03/31 06:05:49;;;;;;;3.47;3.20;;;3.40;99.90;;;;;;5113029;28;20055;-73
2022/03/31 06:08:17;;;;;;;3.63;3.33;;;3.40;99.90;;;;;;5113189;28;20548;-73
2022/03/31 06:10:43;;;;;;;3.35;3.15;;;3.40;99.90;;;;;;5113000;28;20403;-73
2022/03/31 06:13:09;;;;;;;3.60;3.30;;;3.50;99.90;;;;;;5112365;28;20539;-73
2022/03/31 06:15:35;;;;;;;3.53;3.22;;;3.50;99.90;;;;;;5112888;28;20128;-74
2022/03/31 06:18:01;;;;;;;3.70;3.40;;;3.50;99.90;;;;;;5111997;28;20093;-76
2022/03/31 06:20:28;;;;;;;3.88;3.58;;;3.50;99.90;;;;;;5111931;28;20052;-73
2022/03/31 06:22:53;;;;;;;3.55;3.25;;;3.50;99.90;;;;;;5111616;28;20054;-73
2022/03/31 06:25:20;;;;;;;4.47;4.05;;;3.50;99.90;;;;;;5112925;28;20044;-73
2022/03/31 06:27:46;;;;;;;4.25;3.85;;;3.50;99.90;;;;;;5111474;28;20039;-74
2022/03/31 06:30:12;;;;;;;4.60;4.20;;;3.60;99.90;;;;;;5111456;28;20047;-74
2022/03/31 06:32:38;;;;;;;4.15;3.85;;;3.60;99.90;;;;;;5112468;28;20047;-73
2022/03/31 06:35:04;;;;;;;4.28;3.97;;;3.60;99.90;;;;;;5112047;28;20058;-74
2022/03/31 06:37:30;;;;;;;4.13;3.72;;;3.60;99.90;;;;;;5113292;28;20055;-73
2022/03/31 06:39:55;;;;;;;4.50;4.10;;;3.60;99.90;;;;;;5094633;28;20090;-73
2022/03/31 06:42:21;;;;;;;4.70;4.30;;;3.60;99.90;;;;;;5111823;28;20050;-73
2022/03/31 06:44:47;;;;;;;4.78;4.38;;;3.60;99.90;;;;;;5111565;28;20111;-73
2022/03/31 06:47:12;;;;;;;5.13;4.72;;;3.50;99.90;;;;;;5113195;28;20039;-73
2022/03/31 06:49:38;;;;;;;4.80;4.40;;;3.60;99.90;;;;;;5112749;28;20405;-73
2022/03/31 06:52:04;;;;;;;4.80;4.40;;;3.60;99.90;;;;;;5113084;28;20491;-73
2022/03/31 06:54:31;;;;;;;4.60;4.30;;;3.60;99.90;;;;;;5113066;28;20097;-73
2022/03/31 06:56:57;;;;;;;4.47;4.18;;;3.60;99.90;;;;;;5095030;28;20425;-82
2022/03/31 06:59:23;;;;;;;5.00;4.60;;;3.60;99.90;;;;;;5113039;28;20043;-73
2022/03/31 07:01:48;;;;;;;5.32;4.93;;;3.60;99.90;;;;;;5123739;28;20470;-73
2022/03/31 07:04:15;;;;;;;4.85;4.45;;;3.60;99.90;;;;;;5133502;28;20134;-74
2022/03/31 07:06:40;;;;;;;5.15;4.75;;;3.70;99.90;;;;;;5133094;28;20089;-74
2022/03/31 07:09:06;;;;;;;5.47;4.95;;;3.70;99.90;;;;;;5115110;28;20083;-73
2022/03/31 07:11:34;;;;;;;5.45;5.05;;;3.60;99.90;;;;;;5137211;27;20043;-73
2022/03/31 07:14:02;;;;;;;5.13;4.68;;;3.70;99.90;;;;;;5119064;27;20394;-73
2022/03/31 07:16:29;;;;;;;5.07;4.68;;;3.80;99.90;;;;;;5137575;27;20058;-73
2022/03/31 07:18:54;;;;;;;5.90;5.40;;;3.80;99.90;;;;;;5136863;27;20458;-73
2022/03/31 07:21:20;;;;;;;5.60;5.13;;;3.80;99.90;;;;;;5137426;27;20086;-75
2022/03/31 07:23:48;;;;;;;5.63;5.22;;;3.80;99.90;;;;;;5137007;27;20050;-76
2022/03/31 07:26:15;;;;;;;5.80;5.35;;;3.80;99.90;;;;;;5119460;27;20432;-76
2022/03/31 07:28:41;;;;;;;5.80;5.35;;;3.80;99.90;;;;;;5136861;27;20449;-79
2022/03/31 07:31:06;;;;;;;5.35;4.95;;;3.90;99.90;;;;;;5119026;27;20097;-74
2022/03/31 07:33:32;;;;;;;6.07;5.57;;;3.80;99.90;;;;;;5119157;27;20083;-74
2022/03/31 07:35:58;;;;;;;6.00;5.50;;;3.80;99.90;;;;;;5136702;27;20047;-73
2022/03/31 07:38:24;;;;;;;5.68;5.18;;;3.80;99.90;;;;;;5136936;27;20043;-75
2022/03/31 07:40:50;;;;;;;5.93;5.43;;;3.80;99.90;;;;;;5136546;27;20502;-76
2022/03/31 07:43:15;;;;;;;5.88;5.38;;;3.90;99.90;;;;;;5136941;27;20054;-76
2022/03/31 07:45:41;;;;;;;6.30;5.80;;;3.80;99.90;;;;;;5118577;27;20050;-74
2022/03/31 07:48:13;;;;;;;6.43;5.90;;;3.80;99.90;;;;;;5101301;27;20489;-74
2022/03/31 07:50:39;;;;;;;6.90;6.20;;;3.90;99.90;;;;;;5102853;27;20054;-74
2022/03/31 07:53:05;;;;;;;6.53;5.93;;;3.90;99.90;;;;;;5136306;27;20043;-74
2022/03/31 07:55:30;;;;;;;6.55;5.95;;;3.90;99.90;;;;;;5136858;27;20039;-74
2022/03/31 07:57:56;;;;;;;6.53;6.03;;;3.90;99.90;;;;;;5117962;27;20039;-74
2022/03/31 08:00:22;;;;;;;6.00;5.50;;;3.90;99.90;;;;;;5136562;27;20433;-74
2022/03/31 08:02:49;;;;;;;6.70;6.10;;;3.90;99.90;;;;;;5136354;27;20059;-74
2022/03/31 08:05:16;;;;;;;6.47;5.97;;;3.90;99.90;;;;;;5136668;27;20043;-74
2022/03/31 08:07:42;;;;;;;6.38;5.85;;;3.90;99.90;;;;;;5118446;27;20118;-74
2022/03/31 08:10:08;;;;;;;5.97;5.47;;;3.90;99.90;;;;;;5136407;27;20530;-74
2022/03/31 08:12:34;;;;;;;6.75;6.18;;;3.90;99.90;;;;;;5136558;27;20479;-74
2022/03/31 08:15:00;;;;;;;6.45;5.85;;;3.90;99.90;;;;;;5117993;27;20044;-74
2022/03/31 08:17:25;;;;;;;6.80;6.07;;;3.90;99.90;;;;;;5136170;27;20043;-74
2022/03/31 08:19:51;;;;;;;6.22;5.72;;;3.90;99.90;;;;;;5117363;27;20050;-74
2022/03/31 08:22:17;;;;;;;6.43;5.93;;;3.90;99.90;;;;;;5117330;27;20049;-74
2022/03/31 08:24:43;;;;;;;6.68;6.07;;;3.90;99.90;;;;;;5136225;27;20084;-74
2022/03/31 08:27:09;;;;;;;6.00;5.50;;;3.90;99.90;;;;;;5117399;27;20047;-74
2022/03/31 08:29:35;;;;;;;7.22;5.93;;;3.90;99.90;;;;;;5117985;27;20402;-74
2022/03/31 08:32:04;;;;;;;6.32;5.82;;;3.90;99.90;;;;;;5135506;27;20043;-74
2022/03/31 08:34:30;;;;;;;6.10;5.60;;;3.90;99.90;;;;;;5117787;27;20039;-74
2022/03/31 08:36:55;;;;;;;6.35;5.75;;;3.90;99.90;;;;;;5135560;27;20043;-74
2022/03/31 08:39:21;;;;;;;7.70;6.25;;;3.80;99.90;;;;;;5117348;27;20088;-74
2022/03/31 08:41:47;;;;;;;6.35;5.80;;;3.90;99.90;;;;;;5135711;27;20039;-74
2022/03/31 08:44:13;;;;;;;5.82;5.00;;;4.00;99.90;;;;;;5134720;27;20186;-74
2022/03/31 08:46:38;;;;;;;4.78;4.38;;;3.90;99.90;;;;;;5117393;27;20043;-74
2022/03/31 08:49:04;;;;;;;5.70;5.18;;;3.90;99.90;;;;;;5135265;27;20368;-73
2022/03/31 08:51:30;;;;;;;5.03;4.63;;;3.80;99.90;;;;;;5117442;27;20043;-74
2022/03/31 08:53:55;;;;;;;4.45;4.05;;;3.80;99.90;;;;;;5117154;27;20043;-75
2022/03/31 08:56:21;;;;;;;3.20;3.00;;;3.80;99.90;;;;;;5100408;27;20057;-75
2022/03/31 08:58:47;;;;;;;3.15;2.95;;;3.70;99.90;;;;;;5117227;27;20047;-75
2022/03/31 09:01:13;;;;;;;3.10;2.85;;;3.70;99.90;;;;;;5134855;27;20090;-75
2022/03/31 09:03:39;;;;;;;3.42;3.13;;;3.70;99.90;;;;;;5135631;27;20055;-75
2022/03/31 09:06:05;;;;;;;3.22;2.92;;;3.70;99.90;;;;;;5134972;27;20050;-75
2022/03/31 09:08:30;;;;;;;3.10;2.90;;;3.70;99.90;;;;;;5117273;27;20035;-75
2022/03/31 09:11:00;;;;;;;3.40;3.10;;;3.60;99.90;;;;;;5116698;27;20502;-75
2022/03/31 09:13:36;;;;;;;3.55;3.25;;;3.60;99.90;;;;;;5100547;27;20051;-75
2022/03/31 09:16:03;;;;;;;3.85;3.13;;;3.60;99.90;;;;;;5116631;27;20047;-75
2022/03/31 09:18:30;;;;;;;3.95;3.65;;;3.50;99.90;;;;;;5135037;27;20046;-75
2022/03/31 09:20:57;;;;;;;4.95;4.55;;;3.50;99.90;;;;;;5116611;27;20082;-75
2022/03/31 09:23:31;;;;;;;4.63;4.22;;;3.50;99.90;;;;;;5099956;27;20057;-78
2022/03/31 09:26:12;;;;;;;5.25;4.75;;;3.40;99.90;;;;;;5099625;27;20055;-78
2022/03/31 09:28:38;;;;;;;5.00;4.60;;;3.30;99.90;;;;;;5100461;27;20081;-78
2022/03/31 09:31:05;;;;;;;5.30;4.80;;;3.20;99.90;;;;;;5082574;27;20043;-78
2022/03/31 09:33:35;;;;;;;5.35;4.85;;;3.20;99.90;;;;;;5133969;27;20039;-75
2022/03/31 09:36:08;;;;;;;5.85;4.80;;;3.20;99.90;;;;;;5116037;27;20050;-76
2022/03/31 09:38:37;;;;;;;5.82;5.05;;;3.20;99.90;;;;;;5116401;27;20047;-76
2022/03/31 09:41:23;;;;;;;6.28;5.68;;;3.10;99.90;;;;;;5116243;27;20047;-76
2022/03/31 09:43:50;;;;;;;7.03;6.32;;;3.10;99.90;;;;;;5082595;27;20050;-77
2022/03/31 09:46:21;;;;;;;8.40;7.57;;;3.00;99.90;;;;;;5115782;27;20043;-74
2022/03/31 09:48:48;;;;;;;8.07;7.28;;;3.00;99.90;;;;;;5134599;27;20456;-75
2022/03/31 09:51:14;;;;;;;8.88;8.00;;;2.90;99.90;;;;;;5115847;27;20055;-74
2022/03/31 09:53:40;;;;;;;9.45;8.45;;;2.90;99.90;;;;;;5134317;27;20047;-75
2022/03/31 09:56:06;;;;;;;10.68;9.57;;;2.80;99.90;;;;;;5134097;27;20444;-75
2022/03/31 09:58:34;;;;;;;10.52;9.43;;;2.80;99.90;;;;;;5115970;27;20047;-75
2022/03/31 10:01:00;;;;;;;11.55;10.10;;;2.80;99.90;;;;;;5095600;28;20441;-77
2022/03/31 10:03:26;;;;;;;10.70;9.52;;;2.70;99.90;;;;;;5095616;28;20052;-75
2022/03/31 10:05:51;;;;;;;12.57;10.57;;;2.70;99.90;;;;;;5112252;28;20039;-74
2022/03/31 10:08:17;;;;;;;11.95;10.57;;;2.70;99.90;;;;;;5095107;28;20506;-75
2022/03/31 10:10:43;;;;;;;10.35;9.25;;;2.70;99.90;;;;;;5112189;28;20043;-75
2022/03/31 10:13:27;;;;;;;9.65;8.65;;;2.70;99.90;;;;;;5111947;28;20130;-75
2022/03/31 10:16:09;;;;;;;9.63;8.63;;;2.70;99.90;;;;;;5095601;28;20557;-75
2022/03/31 10:18:36;;;;;;;8.18;7.38;;;2.70;99.90;;;;;;5095601;28;20139;-75
2022/03/31 10:21:02;;;;;;;7.63;6.93;;;2.70;99.90;;;;;;5113408;28;20046;-78
2022/03/31 10:26:25;;;;;;;7.18;6.47;;;2.70;99.90;;;;;;5112070;28;20450;-80
2022/03/31 10:28:54;;;;;;;6.70;6.00;;;2.80;99.90;;;;;;5112208;28;20051;-74
2022/03/31 10:31:20;;;;;;;6.32;5.72;;;2.80;99.90;;;;;;5113194;28;20090;-74
2022/03/31 10:33:51;;;;;;;6.97;5.75;;;2.70;99.90;;;;;;5113220;28;20082;-74
2022/03/31 10:36:19;;;;;;;6.35;5.75;;;2.80;99.90;;;;;;5111511;28;20430;-75
2022/03/31 10:39:02;;;;;;;7.07;6.38;;;2.80;99.90;;;;;;5111854;28;20472;-75
2022/03/31 10:41:32;;;;;;;7.30;6.57;;;2.80;99.90;;;;;;5095709;28;20126;-75
2022/03/31 10:43:58;;;;;;;7.10;6.32;;;2.80;99.90;;;;;;5111971;28;20126;-75
2022/03/31 10:46:25;;;;;;;6.97;6.28;;;2.70;99.90;;;;;;5111476;28;20458;-75
2022/03/31 10:48:55;;;;;;;6.97;6.28;;;2.70;99.90;;;;;;5111623;28;20082;-75
2022/03/31 10:51:37;;;;;;;7.17;6.47;;;2.70;99.90;;;;;;5111406;28;20391;-75
2022/03/31 10:54:03;;;;;;;7.28;6.57;;;2.70;99.90;;;;;;5111516;28;20325;-75
2022/03/31 10:56:29;;;;;;;7.15;6.40;;;2.70;99.90;;;;;;5111250;28;20043;-75
2022/03/31 10:58:57;;;;;;;6.85;6.18;;;2.70;99.90;;;;;;5111518;28;20119;-75
2022/03/31 11:01:25;;;;;;;6.75;5.88;;;2.70;99.90;;;;;;5094226;28;20055;-75
2022/03/31 11:03:51;;;;;;;6.60;5.90;;;2.80;99.90;;;;;;5078405;28;20081;-75
2022/03/31 11:06:18;;;;;;;6.10;5.50;;;2.90;99.90;;;;;;5112359;28;20463;-75
2022/03/31 11:08:47;;;;;;;6.45;5.78;;;2.80;99.90;;;;;;5112857;28;20043;-75
2022/03/31 11:11:29;;;;;;;5.90;5.30;;;2.80;99.90;;;;;;5111361;28;20066;-75
2022/03/31 11:13:58;;;;;;;5.53;5.00;;;2.80;99.90;;;;;;5111131;28;20562;-75
2022/03/31 11:16:39;;;;;;;5.57;5.07;;;2.80;99.90;;;;;;5112159;28;20101;-75
2022/03/31 11:19:05;;;;;;;5.25;4.75;;;2.70;99.90;;;;;;5080312;28;20044;-75
2022/03/31 11:21:34;;;;;;;5.15;4.65;;;2.80;99.90;;;;;;5112291;28;20105;-75
2022/03/31 11:24:00;;;;;;;4.72;4.32;;;2.80;99.90;;;;;;5111596;28;20059;-75
2022/03/31 11:26:26;;;;;;;4.60;4.20;;;2.70;99.90;;;;;;5111182;28;20537;-75
2022/03/31 11:28:52;;;;;;;4.85;4.43;;;2.70;99.90;;;;;;5111378;28;20422;-75
2022/03/31 11:31:20;;;;;;;4.43;4.03;;;2.60;99.90;;;;;;5111829;28;20050;-75
2022/03/31 11:33:46;;;;;;;4.03;3.72;;;2.60;99.90;;;;;;5111359;28;20079;-75
2022/03/31 11:36:12;;;;;;;4.57;4.18;;;2.70;99.90;;;;;;5110944;28;20100;-82
2022/03/31 11:38:38;;;;;;;4.60;4.20;;;2.50;99.90;;;;;;5094473;28;20131;-75
2022/03/31 11:41:04;;;;;;;4.40;4.07;;;2.40;99.90;;;;;;5094294;28;20081;-75
2022/03/31 11:43:30;;;;;;;4.68;4.28;;;2.40;99.90;;;;;;5111882;28;20040;-75
2022/03/31 11:45:56;;;;;;;4.15;3.85;;;2.40;99.90;;;;;;5112350;28;20048;-75
2022/03/31 11:48:32;;;;;;;4.53;4.13;;;2.30;99.90;;;;;;5110797;28;20051;-75
2022/03/31 11:50:59;;;;;;;4.63;4.22;;;2.30;99.90;;;;;;5112344;28;20058;-75
2022/03/31 11:53:27;;;;;;;5.00;4.60;;;2.20;99.90;;;;;;5122489;28;20424;-75
2022/03/31 11:56:06;;;;;;;4.75;4.35;;;2.20;99.90;;;;;;5133748;27;20433;-75
2022/03/31 11:58:42;;;;;;;5.55;5.05;;;2.20;99.90;;;;;;5135038;27;20099;-75
2022/03/31 12:01:08;;;;;;;5.50;5.00;;;2.20;99.90;;;;;;5141947;27;20054;-75
2022/03/31 12:03:35;;;;;;;5.32;4.82;;;2.20;99.90;;;;;;5138211;27;20069;-75
2022/03/31 12:06:00;;;;;;;5.28;4.78;;;2.20;99.90;;;;;;5138629;27;20393;-74
2022/03/31 12:08:26;;;;;;;4.88;4.47;;;2.10;99.90;;;;;;5138236;27;20034;-74
2022/03/31 12:10:52;;;;;;;5.25;4.80;;;2.10;99.90;;;;;;5121321;27;20096;-75
2022/03/31 12:13:19;;;;;;;5.40;4.90;;;2.10;99.90;;;;;;5120791;27;20039;-74
2022/03/31 12:15:45;;;;;;;5.05;4.65;;;2.10;99.90;;;;;;5138535;27;20121;-74
2022/03/31 12:18:17;;;;;;;5.68;5.05;;;2.10;99.90;;;;;;5156725;27;20038;-74
2022/03/31 12:20:46;;;;;;;5.40;4.82;;;2.00;99.90;;;;;;5156857;27;20030;-74
2022/03/31 12:23:22;;;;;;;5.15;4.65;;;1.90;99.90;;;;;;5138316;27;20493;-74
2022/03/31 12:25:48;;;;;;;6.13;5.63;;;2.00;99.90;;;;;;5156482;27;20047;-74
2022/03/31 12:28:14;;;;;;;4.95;4.45;;;1.90;99.90;;;;;;5156271;27;20374;-74
2022/03/31 12:30:50;;;;;;;4.90;4.47;;;1.90;99.90;;;;;;5137625;27;20043;-75
2022/03/31 12:33:20;;;;;;;5.65;4.65;;;1.90;99.90;;;;;;5156358;27;20486;-75
2022/03/31 12:35:55;;;;;;;5.57;5.07;;;1.90;99.90;;;;;;5156475;27;20046;-76
2022/03/31 12:38:34;;;;;;;5.43;4.93;;;1.90;99.90;;;;;;5155715;27;20119;-75
2022/03/31 12:41:00;;;;;;;5.20;4.68;;;2.00;99.90;;;;;;5156328;27;20038;-75
2022/03/31 12:43:26;;;;;;;5.35;4.85;;;2.00;99.90;;;;;;5155698;27;20039;-76
2022/03/31 12:45:52;;;;;;;5.22;4.72;;;1.90;99.90;;;;;;5120517;27;20047;-79
2022/03/31 12:48:18;;;;;;;5.75;4.90;;;1.90;99.90;;;;;;5137578;27;20382;-76
2022/03/31 12:50:44;;;;;;;5.90;5.32;;;2.00;99.90;;;;;;5137262;27;20039;-76
2022/03/31 12:53:09;;;;;;;6.15;5.55;;;2.00;99.90;;;;;;5155991;27;20038;-77
2022/03/31 12:55:36;;;;;;;6.20;5.53;;;2.00;99.90;;;;;;5136832;27;20041;-76
2022/03/31 12:58:03;;;;;;;7.22;6.20;;;2.00;99.90;;;;;;5137667;27;20035;-76
2022/03/31 13:00:31;;;;;;;6.63;5.93;;;1.90;99.90;;;;;;5120196;27;20394;-76
2022/03/31 13:02:59;;;;;;;7.22;6.53;;;2.00;99.90;;;;;;5155986;27;20057;-77